sensor_id;sensor_type;location;lat;lon;timestamp;pressure;altitude;pressure_sealevel;temperature;humidity
25510;BME280;13413;52.336;21.200;2024-01-10T00:00:42;102262.17;;;-5.75;58.93
25510;BME280;13413;52.336;21.200;2024-01-10T00:03:29;102265.27;;;-5.75;58.84
25510;BME280;13413;52.336;21.200;2024-01-10T00:06:17;102269.71;;;-5.73;58.85
25510;BME280;13413;52.336;21.200;2024-01-10T00:09:04;102274.15;;;-5.70;58.86
25510;BME280;13413;52.336;21.200;2024-01-10T00:11:51;102285.14;;;-5.68;58.74
25510;BME280;13413;52.336;21.200;2024-01-10T00:14:38;102285.77;;;-5.64;58.74
25510;BME280;13413;52.336;21.200;2024-01-10T00:20:28;102285.15;;;-5.58;58.75
25510;BME280;13413;52.336;21.200;2024-01-10T00:23:15;102278.13;;;-5.61;58.70
25510;BME280;13413;52.336;21.200;2024-01-10T00:26:03;102274.93;;;-5.66;58.85
25510;BME280;13413;52.336;21.200;2024-01-10T00:28:50;102276.33;;;-5.67;58.84
25510;BME280;13413;52.336;21.200;2024-01-10T00:31:37;102274.74;;;-5.65;58.92
25510;BME280;13413;52.336;21.200;2024-01-10T00:34:24;102279.57;;;-5.64;58.86
25510;BME280;13413;52.336;21.200;2024-01-10T00:37:11;102282.15;;;-5.64;58.89
25510;BME280;13413;52.336;21.200;2024-01-10T00:39:58;102278.41;;;-5.67;58.84
25510;BME280;13413;52.336;21.200;2024-01-10T00:42:46;102275.91;;;-5.72;58.87
25510;BME280;13413;52.336;21.200;2024-01-10T00:45:33;102269.77;;;-5.76;58.99
25510;BME280;13413;52.336;21.200;2024-01-10T00:51:07;102265.75;;;-5.83;59.18
25510;BME280;13413;52.336;21.200;2024-01-10T00:53:55;102261.23;;;-5.88;59.25
25510;BME280;13413;52.336;21.200;2024-01-10T00:56:42;102258.71;;;-5.93;59.42
25510;BME280;13413;52.336;21.200;2024-01-10T00:59:29;102257.40;;;-5.97;59.53
25510;BME280;13413;52.336;21.200;2024-01-10T01:02:16;102258.79;;;-5.98;59.47
25510;BME280;13413;52.336;21.200;2024-01-10T01:05:05;102253.27;;;-5.98;59.61
25510;BME280;13413;52.336;21.200;2024-01-10T01:07:52;102251.27;;;-6.01;59.52
25510;BME280;13413;52.336;21.200;2024-01-10T01:10:39;102245.77;;;-6.02;59.74
25510;BME280;13413;52.336;21.200;2024-01-10T01:13:26;102243.73;;;-6.04;59.69
25510;BME280;13413;52.336;21.200;2024-01-10T01:16:14;102240.36;;;-6.08;60.08
25510;BME280;13413;52.336;21.200;2024-01-10T01:19:01;102234.89;;;-6.11;59.96
25510;BME280;13413;52.336;21.200;2024-01-10T01:21:49;102234.54;;;-6.11;59.86
25510;BME280;13413;52.336;21.200;2024-01-10T01:24:35;102227.98;;;-6.11;59.99
25510;BME280;13413;52.336;21.200;2024-01-10T01:27:23;102227.33;;;-6.12;60.05
25510;BME280;13413;52.336;21.200;2024-01-10T01:30:11;102223.39;;;-6.13;60.11
25510;BME280;13413;52.336;21.200;2024-01-10T01:32:58;102226.66;;;-6.14;60.14
25510;BME280;13413;52.336;21.200;2024-01-10T01:35:46;102222.83;;;-6.11;60.04
25510;BME280;13413;52.336;21.200;2024-01-10T01:38:33;102225.57;;;-6.09;60.11
25510;BME280;13413;52.336;21.200;2024-01-10T01:41:20;102224.91;;;-6.12;60.18
25510;BME280;13413;52.336;21.200;2024-01-10T01:44:07;102223.89;;;-6.13;60.30
25510;BME280;13413;52.336;21.200;2024-01-10T01:46:54;102220.63;;;-6.14;60.19
25510;BME280;13413;52.336;21.200;2024-01-10T01:49:42;102214.62;;;-6.14;60.29
25510;BME280;13413;52.336;21.200;2024-01-10T01:55:20;102213.42;;;-6.15;60.42
25510;BME280;13413;52.336;21.200;2024-01-10T01:58:08;102211.68;;;-6.13;60.50
25510;BME280;13413;52.336;21.200;2024-01-10T02:00:55;102208.42;;;-6.14;60.54
25510;BME280;13413;52.336;21.200;2024-01-10T02:03:42;102211.19;;;-6.16;60.56
25510;BME280;13413;52.336;21.200;2024-01-10T02:06:29;102209.83;;;-6.16;60.59
25510;BME280;13413;52.336;21.200;2024-01-10T02:09:17;102213.61;;;-6.16;60.65
25510;BME280;13413;52.336;21.200;2024-01-10T02:12:05;102219.29;;;-6.16;60.60
25510;BME280;13413;52.336;21.200;2024-01-10T02:14:53;102220.30;;;-6.14;60.66
25510;BME280;13413;52.336;21.200;2024-01-10T02:17:40;102217.89;;;-6.13;60.61
25510;BME280;13413;52.336;21.200;2024-01-10T02:20:27;102214.10;;;-6.14;60.67
25510;BME280;13413;52.336;21.200;2024-01-10T02:23:15;102214.15;;;-6.17;60.64
25510;BME280;13413;52.336;21.200;2024-01-10T02:26:02;102208.83;;;-6.17;60.60
25510;BME280;13413;52.336;21.200;2024-01-10T02:28:50;102204.00;;;-6.17;60.76
25510;BME280;13413;52.336;21.200;2024-01-10T02:31:35;102200.58;;;-6.19;60.81
25510;BME280;13413;52.336;21.200;2024-01-10T02:42:31;102189.88;;;-6.17;60.92
25510;BME280;13413;52.336;21.200;2024-01-10T02:45:19;102192.77;;;-6.16;60.97
25510;BME280;13413;52.336;21.200;2024-01-10T02:48:07;102182.95;;;-6.14;60.98
25510;BME280;13413;52.336;21.200;2024-01-10T02:50:54;102179.33;;;-6.15;60.96
25510;BME280;13413;52.336;21.200;2024-01-10T02:56:30;102177.52;;;-6.30;61.27
25510;BME280;13413;52.336;21.200;2024-01-10T02:59:17;102178.08;;;-6.32;61.40
25510;BME280;13413;52.336;21.200;2024-01-10T03:02:05;102167.88;;;-6.30;61.55
25510;BME280;13413;52.336;21.200;2024-01-10T03:04:52;102164.10;;;-6.30;61.67
25510;BME280;13413;52.336;21.200;2024-01-10T03:07:39;102169.42;;;-6.29;61.59
25510;BME280;13413;52.336;21.200;2024-01-10T03:10:27;102166.14;;;-6.19;61.40
25510;BME280;13413;52.336;21.200;2024-01-10T03:13:14;102166.23;;;-6.14;61.33
25510;BME280;13413;52.336;21.200;2024-01-10T03:16:02;102167.73;;;-6.11;61.30
25510;BME280;13413;52.336;21.200;2024-01-10T03:18:49;102166.98;;;-6.08;61.24
25510;BME280;13413;52.336;21.200;2024-01-10T03:21:36;102167.82;;;-6.05;61.19
25510;BME280;13413;52.336;21.200;2024-01-10T03:24:23;102161.99;;;-6.08;61.39
25510;BME280;13413;52.336;21.200;2024-01-10T03:27:10;102159.05;;;-6.06;61.17
25510;BME280;13413;52.336;21.200;2024-01-10T03:29:57;102156.13;;;-6.07;61.31
25510;BME280;13413;52.336;21.200;2024-01-10T03:32:45;102152.38;;;-6.10;61.38
25510;BME280;13413;52.336;21.200;2024-01-10T03:35:31;102154.95;;;-6.08;61.13
25510;BME280;13413;52.336;21.200;2024-01-10T03:38:19;102154.69;;;-6.03;61.28
25510;BME280;13413;52.336;21.200;2024-01-10T03:41:06;102160.16;;;-6.00;61.23
25510;BME280;13413;52.336;21.200;2024-01-10T03:43:54;102158.27;;;-6.00;61.35
25510;BME280;13413;52.336;21.200;2024-01-10T03:46:41;102157.25;;;-6.01;61.46
25510;BME280;13413;52.336;21.200;2024-01-10T03:49:28;102157.80;;;-6.03;61.30
25510;BME280;13413;52.336;21.200;2024-01-10T03:52:15;102153.19;;;-6.06;61.36
25510;BME280;13413;52.336;21.200;2024-01-10T03:55:03;102153.70;;;-6.06;61.47
25510;BME280;13413;52.336;21.200;2024-01-10T03:57:49;102150.95;;;-6.06;61.54
25510;BME280;13413;52.336;21.200;2024-01-10T04:00:37;102145.80;;;-6.07;61.50
25510;BME280;13413;52.336;21.200;2024-01-10T04:03:24;102140.35;;;-6.11;61.54
25510;BME280;13413;52.336;21.200;2024-01-10T04:06:11;102137.31;;;-6.14;61.56
25510;BME280;13413;52.336;21.200;2024-01-10T04:08:59;102130.84;;;-6.18;61.69
25510;BME280;13413;52.336;21.200;2024-01-10T04:11:46;102122.67;;;-6.24;61.75
25510;BME280;13413;52.336;21.200;2024-01-10T04:14:34;102119.78;;;-6.26;61.87
25510;BME280;13413;52.336;21.200;2024-01-10T04:17:21;102117.64;;;-6.31;62.18
25510;BME280;13413;52.336;21.200;2024-01-10T04:20:09;102113.85;;;-6.31;62.09
25510;BME280;13413;52.336;21.200;2024-01-10T04:25:46;102110.56;;;-6.31;62.17
25510;BME280;13413;52.336;21.200;2024-01-10T04:28:33;102110.27;;;-6.33;62.27
25510;BME280;13413;52.336;21.200;2024-01-10T04:31:20;102109.83;;;-6.37;62.36
25510;BME280;13413;52.336;21.200;2024-01-10T04:34:07;102106.92;;;-6.38;62.22
25510;BME280;13413;52.336;21.200;2024-01-10T04:36:54;102109.16;;;-6.39;62.29
25510;BME280;13413;52.336;21.200;2024-01-10T04:39:42;102114.95;;;-6.35;62.16
25510;BME280;13413;52.336;21.200;2024-01-10T04:42:29;102113.41;;;-6.35;62.09
25510;BME280;13413;52.336;21.200;2024-01-10T04:45:17;102120.98;;;-6.35;62.15
25510;BME280;13413;52.336;21.200;2024-01-10T04:48:21;102121.85;;;-6.36;62.15
25510;BME280;13413;52.336;21.200;2024-01-10T04:51:08;102124.50;;;-6.40;62.11
25510;BME280;13413;52.336;21.200;2024-01-10T04:59:23;102121.86;;;-6.47;62.34
25510;BME280;13413;52.336;21.200;2024-01-10T05:02:10;102126.03;;;-6.49;62.35
25510;BME280;13413;52.336;21.200;2024-01-10T05:04:57;102128.23;;;-6.49;62.23
25510;BME280;13413;52.336;21.200;2024-01-10T05:07:45;102131.10;;;-6.43;62.33
25510;BME280;13413;52.336;21.200;2024-01-10T05:10:32;102136.95;;;-6.43;62.33
25510;BME280;13413;52.336;21.200;2024-01-10T05:13:19;102135.42;;;-6.45;62.37
25510;BME280;13413;52.336;21.200;2024-01-10T05:16:10;102140.48;;;-6.50;62.30
25510;BME280;13413;52.336;21.200;2024-01-10T05:18:57;102138.42;;;-6.50;62.41
25510;BME280;13413;52.336;21.200;2024-01-10T05:21:48;102145.64;;;-6.49;62.55
25510;BME280;13413;52.336;21.200;2024-01-10T05:24:35;102150.66;;;-6.51;62.52
25510;BME280;13413;52.336;21.200;2024-01-10T05:27:22;102151.58;;;-6.54;62.64
25510;BME280;13413;52.336;21.200;2024-01-10T05:30:12;102150.39;;;-6.57;62.60
25510;BME280;13413;52.336;21.200;2024-01-10T05:33:00;102146.15;;;-6.60;62.82
25510;BME280;13413;52.336;21.200;2024-01-10T05:35:47;102141.70;;;-6.62;62.91
25510;BME280;13413;52.336;21.200;2024-01-10T05:38:34;102134.52;;;-6.65;62.93
25510;BME280;13413;52.336;21.200;2024-01-10T05:41:22;102132.69;;;-6.69;63.12
25510;BME280;13413;52.336;21.200;2024-01-10T05:44:09;102125.89;;;-6.74;63.45
25510;BME280;13413;52.336;21.200;2024-01-10T05:46:56;102120.08;;;-6.76;63.36
25510;BME280;13413;52.336;21.200;2024-01-10T05:49:43;102117.09;;;-6.83;63.82
25510;BME280;13413;52.336;21.200;2024-01-10T05:52:31;102117.96;;;-6.84;63.92
25510;BME280;13413;52.336;21.200;2024-01-10T05:55:18;102114.46;;;-6.80;63.92
25510;BME280;13413;52.336;21.200;2024-01-10T05:58:06;102110.71;;;-6.82;64.05
25510;BME280;13413;52.336;21.200;2024-01-10T06:00:53;102107.65;;;-6.84;64.20
25510;BME280;13413;52.336;21.200;2024-01-10T06:03:40;102103.71;;;-6.86;64.23
25510;BME280;13413;52.336;21.200;2024-01-10T06:06:28;102108.39;;;-6.89;64.47
25510;BME280;13413;52.336;21.200;2024-01-10T06:09:15;102110.45;;;-6.89;64.60
25510;BME280;13413;52.336;21.200;2024-01-10T06:12:05;102111.11;;;-6.86;64.64
25510;BME280;13413;52.336;21.200;2024-01-10T06:14:52;102108.15;;;-6.83;64.79
25510;BME280;13413;52.336;21.200;2024-01-10T06:17:40;102107.81;;;-6.84;64.88
25510;BME280;13413;52.336;21.200;2024-01-10T06:20:27;102113.38;;;-6.77;64.94
25510;BME280;13413;52.336;21.200;2024-01-10T06:23:14;102114.83;;;-6.71;64.86
25510;BME280;13413;52.336;21.200;2024-01-10T06:26:02;102124.59;;;-6.67;65.17
25510;BME280;13413;52.336;21.200;2024-01-10T06:28:49;102127.29;;;-6.65;65.21
25510;BME280;13413;52.336;21.200;2024-01-10T06:31:37;102132.30;;;-6.66;65.63
25510;BME280;13413;52.336;21.200;2024-01-10T06:34:24;102136.11;;;-6.67;65.83
25510;BME280;13413;52.336;21.200;2024-01-10T06:37:11;102134.06;;;-6.69;66.38
25510;BME280;13413;52.336;21.200;2024-01-10T06:39:59;102132.67;;;-6.67;66.32
25510;BME280;13413;52.336;21.200;2024-01-10T06:42:47;102134.20;;;-6.66;66.97
25510;BME280;13413;52.336;21.200;2024-01-10T06:45:34;102137.22;;;-6.61;66.79
25510;BME280;13413;52.336;21.200;2024-01-10T06:48:22;102132.91;;;-6.60;67.33
25510;BME280;13413;52.336;21.200;2024-01-10T06:51:13;102136.06;;;-6.64;67.60
25510;BME280;13413;52.336;21.200;2024-01-10T06:54:00;102136.89;;;-6.62;67.35
25510;BME280;13413;52.336;21.200;2024-01-10T06:56:48;102140.80;;;-6.60;67.89
25510;BME280;13413;52.336;21.200;2024-01-10T06:59:35;102142.29;;;-6.55;67.79
25510;BME280;13413;52.336;21.200;2024-01-10T07:02:24;102145.83;;;-6.51;67.39
25510;BME280;13413;52.336;21.200;2024-01-10T07:05:11;102153.85;;;-6.45;67.71
25510;BME280;13413;52.336;21.200;2024-01-10T07:07:59;102145.49;;;-6.40;67.48
25510;BME280;13413;52.336;21.200;2024-01-10T07:10:44;102143.00;;;-6.35;67.48
25510;BME280;13413;52.336;21.200;2024-01-10T07:16:11;102141.42;;;-6.33;67.82
25510;BME280;13413;52.336;21.200;2024-01-10T07:18:58;102139.02;;;-6.33;67.87
25510;BME280;13413;52.336;21.200;2024-01-10T07:21:46;102138.63;;;-6.30;67.87
25510;BME280;13413;52.336;21.200;2024-01-10T07:24:33;102140.77;;;-6.25;67.67
25510;BME280;13413;52.336;21.200;2024-01-10T07:27:20;102143.83;;;-6.22;67.97
25510;BME280;13413;52.336;21.200;2024-01-10T07:30:09;102137.27;;;-6.22;67.81
25510;BME280;13413;52.336;21.200;2024-01-10T07:32:57;102133.15;;;-6.22;67.93
25510;BME280;13413;52.336;21.200;2024-01-10T07:35:44;102131.85;;;-6.27;68.17
25510;BME280;13413;52.336;21.200;2024-01-10T07:41:20;102127.77;;;-6.40;68.98
25510;BME280;13413;52.336;21.200;2024-01-10T07:44:08;102131.16;;;-6.38;68.94
25510;BME280;13413;52.336;21.200;2024-01-10T07:46:55;102128.85;;;-6.33;68.85
25510;BME280;13413;52.336;21.200;2024-01-10T07:49:42;102129.30;;;-6.29;69.06
25510;BME280;13413;52.336;21.200;2024-01-10T07:52:29;102128.03;;;-6.25;69.08
25510;BME280;13413;52.336;21.200;2024-01-10T07:55:17;102132.42;;;-6.20;69.14
25510;BME280;13413;52.336;21.200;2024-01-10T07:58:04;102136.73;;;-6.20;69.23
25510;BME280;13413;52.336;21.200;2024-01-10T08:00:52;102137.48;;;-6.15;68.94
25510;BME280;13413;52.336;21.200;2024-01-10T08:03:42;102136.18;;;-6.08;69.43
25510;BME280;13413;52.336;21.200;2024-01-10T08:06:29;102135.42;;;-6.04;69.42
25510;BME280;13413;52.336;21.200;2024-01-10T08:09:17;102124.35;;;-6.11;70.12
25510;BME280;13413;52.336;21.200;2024-01-10T08:12:05;102120.09;;;-6.14;70.12
25510;BME280;13413;52.336;21.200;2024-01-10T08:14:52;102121.52;;;-6.06;69.66
25510;BME280;13413;52.336;21.200;2024-01-10T08:20:42;102121.92;;;-5.83;69.59
25510;BME280;13413;52.336;21.200;2024-01-10T08:23:30;102128.24;;;-5.80;69.27
25510;BME280;13413;52.336;21.200;2024-01-10T08:26:17;102138.74;;;-5.71;69.25
25510;BME280;13413;52.336;21.200;2024-01-10T08:29:04;102134.86;;;-5.57;69.12
25510;BME280;13413;52.336;21.200;2024-01-10T08:31:51;102131.05;;;-5.47;69.28
25510;BME280;13413;52.336;21.200;2024-01-10T08:34:38;102136.77;;;-5.41;69.31
25510;BME280;13413;52.336;21.200;2024-01-10T08:37:25;102133.02;;;-5.34;69.05
25510;BME280;13413;52.336;21.200;2024-01-10T08:40:13;102132.55;;;-5.28;69.45
25510;BME280;13413;52.336;21.200;2024-01-10T08:43:01;102129.10;;;-5.28;69.47
25510;BME280;13413;52.336;21.200;2024-01-10T08:45:48;102133.48;;;-5.32;69.48
25510;BME280;13413;52.336;21.200;2024-01-10T08:48:35;102147.52;;;-5.35;69.85
25510;BME280;13413;52.336;21.200;2024-01-10T08:51:23;102158.03;;;-5.35;69.72
25510;BME280;13413;52.336;21.200;2024-01-10T08:54:10;102163.23;;;-5.28;69.94
25510;BME280;13413;52.336;21.200;2024-01-10T08:56:58;102166.23;;;-5.23;69.81
25510;BME280;13413;52.336;21.200;2024-01-10T09:02:33;102158.94;;;-5.29;70.17
25510;BME280;13413;52.336;21.200;2024-01-10T09:05:20;102155.98;;;-5.28;70.36
25510;BME280;13413;52.336;21.200;2024-01-10T09:08:08;102148.97;;;-5.30;70.67
25510;BME280;13413;52.336;21.200;2024-01-10T09:10:55;102151.73;;;-5.31;70.53
25510;BME280;13413;52.336;21.200;2024-01-10T09:13:42;102153.79;;;-5.30;70.96
25510;BME280;13413;52.336;21.200;2024-01-10T09:16:30;102150.80;;;-5.35;70.99
25510;BME280;13413;52.336;21.200;2024-01-10T09:19:17;102149.98;;;-5.37;70.97
25510;BME280;13413;52.336;21.200;2024-01-10T09:22:04;102145.48;;;-5.37;71.23
25510;BME280;13413;52.336;21.200;2024-01-10T09:24:52;102147.86;;;-5.35;71.16
25510;BME280;13413;52.336;21.200;2024-01-10T09:36:12;102154.61;;;-5.11;71.22
25510;BME280;13413;52.336;21.200;2024-01-10T09:38:59;102158.70;;;-5.09;71.24
25510;BME280;13413;52.336;21.200;2024-01-10T09:41:49;102156.17;;;-5.04;70.96
25510;BME280;13413;52.336;21.200;2024-01-10T09:44:36;102154.70;;;-4.99;71.17
25510;BME280;13413;52.336;21.200;2024-01-10T09:47:24;102145.70;;;-4.98;71.03
25510;BME280;13413;52.336;21.200;2024-01-10T09:50:12;102140.40;;;-4.92;70.89
25510;BME280;13413;52.336;21.200;2024-01-10T09:53:06;102144.59;;;-4.87;70.86
25510;BME280;13413;52.336;21.200;2024-01-10T09:55:54;102141.52;;;-4.80;71.06
25510;BME280;13413;52.336;21.200;2024-01-10T09:58:45;102140.52;;;-4.75;71.17
25510;BME280;13413;52.336;21.200;2024-01-10T10:01:35;102141.11;;;-4.78;71.00
25510;BME280;13413;52.336;21.200;2024-01-10T10:04:23;102137.38;;;-4.80;71.12
25510;BME280;13413;52.336;21.200;2024-01-10T10:07:13;102136.96;;;-4.78;71.13
25510;BME280;13413;52.336;21.200;2024-01-10T10:10:05;102138.62;;;-4.82;71.30
25510;BME280;13413;52.336;21.200;2024-01-10T10:12:53;102134.46;;;-4.89;71.57
25510;BME280;13413;52.336;21.200;2024-01-10T10:15:41;102137.84;;;-4.85;71.33
25510;BME280;13413;52.336;21.200;2024-01-10T10:18:28;102139.22;;;-4.85;71.65
25510;BME280;13413;52.336;21.200;2024-01-10T10:21:16;102135.65;;;-4.88;71.61
25510;BME280;13413;52.336;21.200;2024-01-10T10:24:06;102134.70;;;-4.92;71.52
25510;BME280;13413;52.336;21.200;2024-01-10T10:26:54;102131.06;;;-4.91;71.92
25510;BME280;13413;52.336;21.200;2024-01-10T10:29:41;102124.52;;;-4.92;71.95
25510;BME280;13413;52.336;21.200;2024-01-10T10:32:29;102121.92;;;-4.92;71.89
25510;BME280;13413;52.336;21.200;2024-01-10T10:35:17;102123.77;;;-4.88;72.07
25510;BME280;13413;52.336;21.200;2024-01-10T10:38:21;102118.73;;;-4.88;71.89
25510;BME280;13413;52.336;21.200;2024-01-10T10:41:09;102113.56;;;-4.88;71.85
25510;BME280;13413;52.336;21.200;2024-01-10T10:43:56;102106.56;;;-4.84;72.15
25510;BME280;13413;52.336;21.200;2024-01-10T10:46:44;102105.55;;;-4.77;71.69
25510;BME280;13413;52.336;21.200;2024-01-10T10:49:33;102102.14;;;-4.71;71.85
25510;BME280;13413;52.336;21.200;2024-01-10T10:52:20;102098.61;;;-4.68;72.02
25510;BME280;13413;52.336;21.200;2024-01-10T10:55:10;102091.74;;;-4.70;72.16
25510;BME280;13413;52.336;21.200;2024-01-10T10:57:58;102089.41;;;-4.73;72.36
25510;BME280;13413;52.336;21.200;2024-01-10T11:00:46;102091.59;;;-4.71;72.31
25510;BME280;13413;52.336;21.200;2024-01-10T11:03:35;102085.63;;;-4.73;72.05
25510;BME280;13413;52.336;21.200;2024-01-10T11:06:23;102080.64;;;-4.75;72.33
25510;BME280;13413;52.336;21.200;2024-01-10T11:09:11;102077.70;;;-4.74;72.55
25510;BME280;13413;52.336;21.200;2024-01-10T11:12:13;102083.77;;;-4.69;72.48
25510;BME280;13413;52.336;21.200;2024-01-10T11:15:18;102072.17;;;-4.60;72.34
25510;BME280;13413;52.336;21.200;2024-01-10T11:18:26;102072.11;;;-4.50;72.30
25510;BME280;13413;52.336;21.200;2024-01-10T11:21:28;102074.27;;;-4.46;72.18
25510;BME280;13413;52.336;21.200;2024-01-10T11:24:19;102068.92;;;-4.54;72.31
25510;BME280;13413;52.336;21.200;2024-01-10T11:27:14;102061.70;;;-4.55;72.18
25510;BME280;13413;52.336;21.200;2024-01-10T11:30:01;102052.73;;;-4.41;72.42
25510;BME280;13413;52.336;21.200;2024-01-10T11:32:49;102055.59;;;-4.06;72.61
25510;BME280;13413;52.336;21.200;2024-01-10T11:35:37;102053.41;;;-3.77;72.24
25510;BME280;13413;52.336;21.200;2024-01-10T11:38:24;102057.52;;;-3.58;71.88
25510;BME280;13413;52.336;21.200;2024-01-10T11:41:19;102051.92;;;-3.55;71.10
25510;BME280;13413;52.336;21.200;2024-01-10T11:44:28;102042.70;;;-3.59;71.24
25510;BME280;13413;52.336;21.200;2024-01-10T11:47:13;102039.69;;;-3.62;71.17
25510;BME280;13413;52.336;21.200;2024-01-10T11:52:40;102043.31;;;-3.51;71.21
25510;BME280;13413;52.336;21.200;2024-01-10T11:55:49;102040.05;;;-3.51;71.39
25510;BME280;13413;52.336;21.200;2024-01-10T11:58:53;102040.23;;;-3.52;71.10
25510;BME280;13413;52.336;21.200;2024-01-10T12:01:42;102043.59;;;-3.60;71.16
25510;BME280;13413;52.336;21.200;2024-01-10T12:04:29;102039.18;;;-3.57;71.41
25510;BME280;13413;52.336;21.200;2024-01-10T12:07:17;102044.40;;;-3.52;71.28
25510;BME280;13413;52.336;21.200;2024-01-10T12:10:27;102048.86;;;-3.51;71.51
25510;BME280;13413;52.336;21.200;2024-01-10T12:13:15;102050.86;;;-3.48;71.59
25510;BME280;13413;52.336;21.200;2024-01-10T12:16:02;102054.52;;;-3.44;71.23
25510;BME280;13413;52.336;21.200;2024-01-10T12:18:50;102055.14;;;-3.35;71.49
25510;BME280;13413;52.336;21.200;2024-01-10T12:21:37;102050.36;;;-3.32;71.42
25510;BME280;13413;52.336;21.200;2024-01-10T12:24:42;102037.68;;;-3.35;71.17
25510;BME280;13413;52.336;21.200;2024-01-10T12:27:27;102029.70;;;-3.40;71.29
25510;BME280;13413;52.336;21.200;2024-01-10T12:30:15;102024.98;;;-3.45;71.40
25510;BME280;13413;52.336;21.200;2024-01-10T12:33:03;102022.77;;;-3.40;71.54
25510;BME280;13413;52.336;21.200;2024-01-10T12:36:08;102014.41;;;-3.38;71.44
25510;BME280;13413;52.336;21.200;2024-01-10T12:38:55;102015.34;;;-3.40;71.53
25510;BME280;13413;52.336;21.200;2024-01-10T12:41:43;102023.04;;;-3.43;71.73
25510;BME280;13413;52.336;21.200;2024-01-10T12:44:31;102015.02;;;-3.47;71.46
25510;BME280;13413;52.336;21.200;2024-01-10T12:47:22;102008.86;;;-3.49;71.72
25510;BME280;13413;52.336;21.200;2024-01-10T12:50:10;102009.71;;;-3.49;71.55
25510;BME280;13413;52.336;21.200;2024-01-10T12:52:57;102007.71;;;-3.51;71.60
25510;BME280;13413;52.336;21.200;2024-01-10T12:55:45;102006.90;;;-3.52;71.68
25510;BME280;13413;52.336;21.200;2024-01-10T12:58:33;102012.47;;;-3.48;71.86
25510;BME280;13413;52.336;21.200;2024-01-10T13:01:21;102005.23;;;-3.49;71.87
25510;BME280;13413;52.336;21.200;2024-01-10T13:04:08;102008.14;;;-3.48;71.99
25510;BME280;13413;52.336;21.200;2024-01-10T13:06:56;102009.39;;;-3.55;71.89
25510;BME280;13413;52.336;21.200;2024-01-10T13:09:43;102010.46;;;-3.56;72.17
25510;BME280;13413;52.336;21.200;2024-01-10T13:15:17;102001.34;;;-3.63;72.45
25510;BME280;13413;52.336;21.200;2024-01-10T13:18:05;102002.03;;;-3.63;72.23
25510;BME280;13413;52.336;21.200;2024-01-10T13:20:52;101997.92;;;-3.70;72.43
25510;BME280;13413;52.336;21.200;2024-01-10T13:23:40;101997.70;;;-3.69;72.50
25510;BME280;13413;52.336;21.200;2024-01-10T13:26:27;101992.37;;;-3.64;72.58
25510;BME280;13413;52.336;21.200;2024-01-10T13:29:14;101988.61;;;-3.60;72.55
25510;BME280;13413;52.336;21.200;2024-01-10T13:32:02;101988.90;;;-3.64;72.65
25510;BME280;13413;52.336;21.200;2024-01-10T13:34:49;101985.89;;;-3.67;72.73
25510;BME280;13413;52.336;21.200;2024-01-10T13:37:53;101983.15;;;-3.62;72.70
25510;BME280;13413;52.336;21.200;2024-01-10T13:40:40;101986.51;;;-3.58;72.77
25510;BME280;13413;52.336;21.200;2024-01-10T13:43:28;101985.14;;;-3.59;72.76
25510;BME280;13413;52.336;21.200;2024-01-10T13:46:15;101984.23;;;-3.58;72.62
25510;BME280;13413;52.336;21.200;2024-01-10T13:49:02;101985.46;;;-3.53;72.74
25510;BME280;13413;52.336;21.200;2024-01-10T13:51:50;101990.41;;;-3.45;72.72
25510;BME280;13413;52.336;21.200;2024-01-10T13:54:37;101984.61;;;-3.42;72.73
25510;BME280;13413;52.336;21.200;2024-01-10T13:57:24;101985.20;;;-3.39;72.97
25510;BME280;13413;52.336;21.200;2024-01-10T14:00:13;101984.83;;;-3.43;72.84
25510;BME280;13413;52.336;21.200;2024-01-10T14:02:59;101978.91;;;-3.48;73.12
25510;BME280;13413;52.336;21.200;2024-01-10T14:14:10;101962.14;;;-3.59;73.12
25510;BME280;13413;52.336;21.200;2024-01-10T14:16:57;101960.10;;;-3.66;73.58
25510;BME280;13413;52.336;21.200;2024-01-10T14:19:44;101964.16;;;-3.69;73.64
25510;BME280;13413;52.336;21.200;2024-01-10T14:22:31;101954.45;;;-3.73;73.65
25510;BME280;13413;52.336;21.200;2024-01-10T14:25:19;101938.71;;;-3.79;74.20
25510;BME280;13413;52.336;21.200;2024-01-10T14:28:06;101933.32;;;-3.84;74.15
25510;BME280;13413;52.336;21.200;2024-01-10T14:30:54;101925.58;;;-3.85;74.39
25510;BME280;13413;52.336;21.200;2024-01-10T14:33:41;101918.28;;;-3.89;74.59
25510;BME280;13413;52.336;21.200;2024-01-10T14:36:28;101915.86;;;-3.89;74.41
25510;BME280;13413;52.336;21.200;2024-01-10T14:39:16;101912.60;;;-3.90;74.64
25510;BME280;13413;52.336;21.200;2024-01-10T14:42:04;101909.63;;;-3.88;74.29
25510;BME280;13413;52.336;21.200;2024-01-10T14:44:51;101918.48;;;-3.84;74.45
25510;BME280;13413;52.336;21.200;2024-01-10T14:47:38;101923.16;;;-3.85;74.28
25510;BME280;13413;52.336;21.200;2024-01-10T14:50:25;101917.71;;;-3.82;74.10
25510;BME280;13413;52.336;21.200;2024-01-10T14:53:13;101904.37;;;-3.81;74.38
25510;BME280;13413;52.336;21.200;2024-01-10T14:56:00;101898.30;;;-3.80;74.18
25510;BME280;13413;52.336;21.200;2024-01-10T14:58:47;101891.98;;;-3.77;74.06
25510;BME280;13413;52.336;21.200;2024-01-10T15:01:36;101893.20;;;-3.77;74.04
25510;BME280;13413;52.336;21.200;2024-01-10T15:04:23;101883.79;;;-3.80;74.48
25510;BME280;13413;52.336;21.200;2024-01-10T15:07:10;101880.98;;;-3.84;74.39
25510;BME280;13413;52.336;21.200;2024-01-10T15:09:57;101878.38;;;-3.84;74.26
25510;BME280;13413;52.336;21.200;2024-01-10T15:12:45;101879.88;;;-3.82;74.30
25510;BME280;13413;52.336;21.200;2024-01-10T15:15:33;101885.71;;;-3.75;74.21
25510;BME280;13413;52.336;21.200;2024-01-10T15:18:20;101883.63;;;-3.75;74.41
25510;BME280;13413;52.336;21.200;2024-01-10T15:21:08;101880.34;;;-3.80;74.38
25510;BME280;13413;52.336;21.200;2024-01-10T15:24:11;101884.96;;;-3.79;74.37
25510;BME280;13413;52.336;21.200;2024-01-10T15:26:59;101889.65;;;-3.80;74.54
25510;BME280;13413;52.336;21.200;2024-01-10T15:29:47;101899.83;;;-3.73;74.49